createdAt,value
2023-01-28T00:01:55.420Z,0.46
2023-01-28T00:04:22.511Z,0.51
2023-01-28T00:06:49.431Z,0.33
2023-01-28T00:09:16.491Z,0.43
2023-01-28T00:11:43.666Z,0.38
2023-01-28T00:14:12.522Z,0.13
2023-01-28T00:16:39.953Z,0.20
2023-01-28T00:19:07.431Z,0.44
2023-01-28T00:21:34.662Z,0.24
2023-01-28T00:24:03.321Z,0.40
2023-01-28T00:26:30.351Z,0.31
2023-01-28T00:28:57.296Z,0.43
2023-01-28T00:31:27.432Z,0.38
2023-01-28T00:33:56.409Z,0.43
2023-01-28T00:36:25.105Z,0.14
2023-01-28T00:38:54.475Z,0.24
2023-01-28T00:41:22.685Z,0.42
2023-01-28T00:43:51.850Z,0.46
2023-01-28T00:46:23.175Z,0.36
2023-01-28T00:48:50.387Z,0.37
2023-01-28T00:51:20.248Z,0.37
2023-01-28T00:53:50.414Z,0.31
2023-01-28T00:56:19.482Z,0.28
2023-01-28T00:58:46.997Z,0.14
2023-01-28T01:01:17.410Z,0.15
2023-01-28T01:03:45.058Z,0.25
2023-01-28T01:06:13.815Z,0.41
2023-01-28T01:08:42.981Z,0.33
2023-01-28T01:11:11.533Z,0.44
2023-01-28T01:13:38.976Z,0.31
2023-01-28T01:16:16.649Z,0.25
2023-01-28T01:18:44.444Z,0.19
2023-01-28T01:21:17.533Z,0.05
2023-01-28T01:23:45.874Z,0.13
2023-01-28T01:26:13.537Z,0.05
2023-01-28T01:28:41.002Z,0.16
2023-01-28T01:31:14.982Z,0.18
2023-01-28T01:33:43.610Z,0.07
2023-01-28T01:36:12.163Z,-0.03
2023-01-28T01:38:41.063Z,-0.06
2023-01-28T01:41:16.049Z,-0.13
2023-01-28T01:43:52.884Z,0.08
2023-01-28T01:46:28.078Z,0.02
2023-01-28T01:48:57.897Z,0.09
2023-01-28T01:51:32.802Z,-0.01
2023-01-28T01:54:01.421Z,-0.04
2023-01-28T01:56:33.218Z,-0.03
2023-01-28T01:59:01.609Z,0.04
2023-01-28T02:01:31.660Z,-0.10
2023-01-28T02:04:11.850Z,-0.07
2023-01-28T02:06:40.998Z,-0.04
2023-01-28T02:09:24.249Z,0.05
2023-01-28T02:11:54.963Z,-0.05
2023-01-28T02:14:30.896Z,-0.07
2023-01-28T02:17:18.358Z,-0.08
2023-01-28T02:19:56.384Z,-0.14
2023-01-28T02:22:52.673Z,0.16
2023-01-28T02:25:31.099Z,-0.10
2023-01-28T02:28:17.788Z,0.00
2023-01-28T02:30:57.460Z,-0.12
2023-01-28T02:33:35.781Z,-0.05
2023-01-28T02:36:18.678Z,-0.06
2023-01-28T02:38:51.006Z,0.02
2023-01-28T02:41:31.887Z,0.14
2023-01-28T02:44:02.981Z,0.11
2023-01-28T02:46:48.778Z,0.14
2023-01-28T02:49:21.492Z,-0.03
2023-01-28T02:52:07.272Z,-0.05
2023-01-28T02:54:40.704Z,0.04
2023-01-28T02:57:19.947Z,0.00
2023-01-28T03:00:03.176Z,-0.50
2023-01-28T03:02:41.282Z,-0.26
2023-01-28T03:05:16.670Z,-0.07
2023-01-28T03:07:43.972Z,-0.24
2023-01-28T03:10:16.624Z,-0.20
2023-01-28T03:13:05.973Z,-0.24
2023-01-28T03:16:01.149Z,-0.15
2023-01-28T03:18:54.660Z,-0.20
2023-01-28T03:21:54.319Z,-0.10
2023-01-28T03:24:49.037Z,-0.16
2023-01-28T03:27:42.483Z,-0.08
2023-01-28T03:30:40.709Z,-0.41
2023-01-28T03:33:32.424Z,0.06
2023-01-28T03:36:19.965Z,-0.46
2023-01-28T03:38:48.681Z,-0.10
2023-01-28T03:41:25.293Z,-0.18
2023-01-28T03:43:54.884Z,-0.17
2023-01-28T03:46:22.465Z,-0.08
2023-01-28T03:48:49.523Z,-0.30
2023-01-28T03:51:18.121Z,-0.22
2023-01-28T03:53:45.420Z,-0.17
2023-01-28T03:56:18.702Z,-0.48
2023-01-28T03:58:52.843Z,-0.24
2023-01-28T04:01:21.081Z,-0.22
2023-01-28T04:03:48.449Z,-0.10
2023-01-28T04:06:20.178Z,-0.10
2023-01-28T04:08:59.606Z,-0.17
2023-01-28T04:11:40.210Z,0.00
2023-01-28T04:14:08.866Z,0.12
2023-01-28T04:16:58.667Z,-0.04
2023-01-28T04:19:26.615Z,-0.03
2023-01-28T04:21:55.377Z,0.05
2023-01-28T04:24:23.712Z,-0.17
2023-01-28T04:26:50.783Z,-0.37
2023-01-28T04:29:17.911Z,-0.34
2023-01-28T04:31:45.556Z,-0.72
2023-01-28T04:34:20.530Z,-0.51
2023-01-28T04:37:05.914Z,-0.39
2023-01-28T04:39:45.580Z,-0.29
2023-01-28T04:42:35.547Z,-0.37
2023-01-28T04:45:09.440Z,-0.30
2023-01-28T04:47:57.455Z,-0.44
2023-01-28T04:50:42.894Z,-0.34
2023-01-28T04:53:19.289Z,-0.27
2023-01-28T04:56:00.377Z,-0.31
2023-01-28T04:58:31.059Z,-0.45
2023-01-28T05:01:02.682Z,-0.39
2023-01-28T05:03:30.799Z,-0.36
2023-01-28T05:05:58.348Z,-0.49
2023-01-28T05:08:40.360Z,-0.34
2023-01-28T05:11:07.630Z,-0.39
2023-01-28T05:13:34.566Z,-0.40
2023-01-28T05:16:01.874Z,-0.51
2023-01-28T05:18:29.029Z,-0.35
2023-01-28T05:21:06.662Z,-0.30
2023-01-28T05:23:36.373Z,-0.44
2023-01-28T05:26:04.128Z,-0.41
2023-01-28T05:28:31.402Z,-0.36
2023-01-28T05:31:04.195Z,-0.39
2023-01-28T05:33:31.215Z,-0.44
2023-01-28T05:35:58.779Z,-0.57
2023-01-28T05:38:26.005Z,-0.28
2023-01-28T05:40:53.304Z,-0.31
2023-01-28T05:43:20.488Z,-0.34
2023-01-28T05:46:08.143Z,-0.39
2023-01-28T05:48:54.348Z,-0.36
2023-01-28T05:51:41.298Z,-0.24
2023-01-28T05:54:10.156Z,-0.34
2023-01-28T05:56:37.641Z,-0.37
2023-01-28T05:59:05.766Z,-0.15
2023-01-28T06:01:34.168Z,-0.24
2023-01-28T06:04:02.031Z,-0.15
2023-01-28T06:06:30.859Z,-0.19
2023-01-28T06:08:58.093Z,-0.09
2023-01-28T06:11:28.479Z,0.06
2023-01-28T06:13:59.905Z,-0.07
2023-01-28T06:16:35.357Z,-0.19
2023-01-28T06:19:35.080Z,-0.18
2023-01-28T06:22:02.829Z,-0.23
2023-01-28T06:24:31.708Z,-0.36
2023-01-28T06:26:58.825Z,-0.10
2023-01-28T06:29:25.785Z,-0.13
2023-01-28T06:31:53.337Z,-0.15
2023-01-28T06:34:20.435Z,-0.20
2023-01-28T06:36:51.202Z,-0.29
2023-01-28T06:39:18.495Z,-0.23
2023-01-28T06:41:45.680Z,-0.12
2023-01-28T06:44:13.012Z,0.01
2023-01-28T06:46:40.392Z,-0.14
2023-01-28T06:49:07.641Z,-0.55
2023-01-28T06:51:34.832Z,-0.29
2023-01-28T06:54:01.997Z,-0.29
2023-01-28T06:56:29.024Z,-0.36
2023-01-28T06:58:56.175Z,-0.41
2023-01-28T07:01:23.151Z,-0.56
2023-01-28T07:03:50.581Z,-0.46
2023-01-28T07:06:17.502Z,-0.48
2023-01-28T07:08:44.734Z,-0.38
2023-01-28T07:11:11.743Z,-0.39
2023-01-28T07:13:39.232Z,-0.30
2023-01-28T07:16:06.787Z,-0.40
2023-01-28T07:18:34.368Z,-0.28
2023-01-28T07:21:01.852Z,-0.31
2023-01-28T07:23:29.248Z,-0.18
2023-01-28T07:26:04.191Z,-0.36
2023-01-28T07:28:31.464Z,-0.35
2023-01-28T07:30:58.775Z,-0.38
2023-01-28T07:33:26.074Z,-0.41
2023-01-28T07:35:54.475Z,-0.39
2023-01-28T07:38:21.483Z,-0.40
2023-01-28T07:40:48.785Z,-0.24
2023-01-28T07:43:16.043Z,-0.08
2023-01-28T07:45:42.927Z,-0.29
2023-01-28T07:48:13.151Z,-0.05
2023-01-28T07:50:41.125Z,-0.15
2023-01-28T07:53:11.290Z,-0.19
2023-01-28T07:55:39.491Z,-0.36
2023-01-28T07:58:08.951Z,-0.30
2023-01-28T08:00:37.738Z,-0.04
2023-01-28T08:03:15.908Z,-0.09
2023-01-28T08:05:48.895Z,0.09
2023-01-28T08:08:16.916Z,-0.30
2023-01-28T08:10:44.380Z,-0.24
2023-01-28T08:13:13.107Z,-0.18
2023-01-28T08:15:40.951Z,-0.09
2023-01-28T08:18:10.213Z,-1.11
2023-01-28T08:20:37.118Z,-0.29
2023-01-28T08:23:14.832Z,-0.13
2023-01-28T08:25:42.538Z,0.09
2023-01-28T08:28:09.999Z,-0.44
2023-01-28T08:30:39.066Z,-0.04
2023-01-28T08:33:10.197Z,0.22
2023-01-28T08:35:37.762Z,-0.15
2023-01-28T08:38:06.534Z,0.09
2023-01-28T08:40:34.383Z,-0.10
2023-01-28T08:43:01.671Z,0.19
2023-01-28T08:45:29.342Z,0.53
2023-01-28T08:47:58.579Z,0.71
2023-01-28T08:50:26.510Z,1.14
2023-01-28T08:52:57.382Z,1.32
2023-01-28T08:55:24.921Z,1.46
2023-01-28T08:57:51.639Z,1.31
2023-01-28T09:00:18.803Z,1.39
2023-01-28T09:02:50.957Z,1.40
2023-01-28T09:05:17.899Z,1.44
2023-01-28T09:07:44.819Z,1.51
2023-01-28T09:10:11.700Z,1.57
2023-01-28T09:12:38.568Z,1.65
2023-01-28T09:15:05.697Z,1.55
2023-01-28T09:17:32.561Z,1.60
2023-01-28T09:19:59.401Z,1.66
2023-01-28T09:22:26.230Z,1.75
2023-01-28T09:24:53.428Z,1.75
2023-01-28T09:27:20.172Z,1.73
2023-01-28T09:29:47.405Z,1.69
2023-01-28T09:32:14.201Z,1.73
2023-01-28T09:34:41.321Z,1.76
2023-01-28T09:37:08.191Z,1.78
2023-01-28T09:39:35.065Z,1.70
2023-01-28T09:42:01.907Z,1.65
2023-01-28T09:44:29.396Z,1.70
2023-01-28T09:47:02.662Z,1.57
2023-01-28T09:49:35.747Z,1.61
2023-01-28T09:52:02.743Z,1.74
2023-01-28T09:54:29.465Z,1.75
2023-01-28T09:57:08.019Z,1.68
2023-01-28T09:59:36.323Z,1.60
2023-01-28T10:02:18.761Z,1.66
2023-01-28T10:04:45.822Z,1.76
2023-01-28T10:07:26.169Z,1.72
2023-01-28T10:09:58.719Z,1.81
2023-01-28T10:12:26.399Z,1.85
2023-01-28T10:15:16.476Z,1.82
2023-01-28T10:17:48.588Z,1.86
2023-01-28T10:20:21.871Z,1.88
2023-01-28T10:22:52.458Z,1.81
2023-01-28T10:25:20.435Z,1.93
2023-01-28T10:27:48.048Z,1.78
2023-01-28T10:30:18.359Z,1.57
2023-01-28T10:32:52.963Z,1.13
2023-01-28T10:35:20.652Z,1.57
2023-01-28T10:37:47.864Z,1.58
2023-01-28T10:40:16.195Z,1.60
2023-01-28T10:42:43.263Z,1.72
2023-01-28T10:45:28.583Z,1.83
2023-01-28T10:48:14.481Z,1.83
2023-01-28T10:50:49.622Z,1.85
2023-01-28T10:53:16.623Z,1.94
2023-01-28T10:55:51.901Z,1.93
2023-01-28T10:58:24.163Z,1.95
2023-01-28T11:00:59.634Z,1.93
2023-01-28T11:03:27.457Z,1.94
2023-01-28T11:05:54.955Z,1.99
2023-01-28T11:08:22.875Z,1.95
2023-01-28T11:10:50.756Z,2.08
2023-01-28T11:13:23.553Z,2.11
2023-01-28T11:15:52.775Z,2.25
2023-01-28T11:18:23.236Z,2.25
2023-01-28T11:20:52.216Z,2.21
2023-01-28T11:23:21.459Z,2.19
2023-01-28T11:25:48.598Z,2.20
2023-01-28T11:28:20.741Z,2.21
2023-01-28T11:30:52.431Z,2.23
2023-01-28T11:33:39.337Z,2.25
2023-01-28T11:36:16.333Z,2.18
2023-01-28T11:38:55.453Z,2.30
2023-01-28T11:41:41.043Z,2.22
2023-01-28T11:44:10.884Z,2.36
2023-01-28T11:46:40.954Z,2.57
2023-01-28T11:49:20.392Z,2.53
2023-01-28T11:51:47.580Z,2.52
2023-01-28T11:54:23.381Z,2.61
2023-01-28T11:56:56.383Z,2.55
2023-01-28T11:59:43.567Z,2.67
2023-01-28T12:02:20.941Z,2.76
2023-01-28T12:04:58.824Z,2.69
2023-01-28T12:07:34.777Z,2.59
2023-01-28T12:10:07.923Z,2.64
2023-01-28T12:12:37.995Z,2.73
2023-01-28T12:15:19.998Z,2.78
2023-01-28T12:18:16.465Z,2.77
2023-01-28T12:20:52.676Z,2.75
2023-01-28T12:23:38.578Z,2.60
2023-01-28T12:26:16.480Z,2.56
2023-01-28T12:28:52.606Z,2.61
2023-01-28T12:31:25.909Z,2.55
2023-01-28T12:34:13.002Z,2.54
2023-01-28T12:36:39.709Z,2.64
2023-01-28T12:39:13.122Z,2.63
2023-01-28T12:41:46.965Z,2.69
2023-01-28T12:44:19.560Z,2.70
2023-01-28T12:46:52.422Z,2.61
2023-01-28T12:49:29.988Z,2.57
2023-01-28T12:51:56.904Z,2.46
2023-01-28T12:54:29.760Z,2.41
2023-01-28T12:56:57.129Z,2.53
2023-01-28T12:59:30.017Z,2.52
2023-01-28T13:02:12.229Z,2.63
2023-01-28T13:04:45.420Z,2.59
2023-01-28T13:07:12.251Z,2.66
2023-01-28T13:09:44.110Z,2.67
2023-01-28T13:12:13.784Z,2.73
2023-01-28T13:14:41.720Z,2.74
2023-01-28T13:17:11.606Z,2.76
2023-01-28T13:19:40.221Z,2.76
2023-01-28T13:22:13.392Z,2.86
2023-01-28T13:24:40.332Z,2.84
2023-01-28T13:27:12.576Z,2.76
2023-01-28T13:29:39.627Z,2.73
2023-01-28T13:32:26.600Z,2.79
2023-01-28T13:34:58.479Z,3.01
2023-01-28T13:37:44.572Z,2.89
2023-01-28T13:40:14.525Z,2.70
2023-01-28T13:42:41.600Z,2.46
2023-01-28T13:45:20.320Z,2.37
2023-01-28T13:47:48.900Z,2.38
2023-01-28T13:50:18.191Z,2.43
2023-01-28T13:52:51.157Z,2.49
2023-01-28T13:55:33.627Z,2.39
2023-01-28T13:58:23.254Z,2.25
2023-01-28T14:00:56.140Z,2.24
2023-01-28T14:03:32.303Z,2.24
2023-01-28T14:06:18.108Z,2.23
2023-01-28T14:08:48.162Z,2.19
2023-01-28T14:11:15.133Z,1.94
2023-01-28T14:13:47.920Z,2.00
2023-01-28T14:16:24.171Z,2.00
2023-01-28T14:18:52.049Z,2.01
2023-01-28T14:21:19.708Z,2.02
2023-01-28T14:23:56.932Z,2.00
2023-01-28T14:26:42.513Z,2.04
2023-01-28T14:29:15.280Z,2.05
2023-01-28T14:31:42.183Z,2.03
2023-01-28T14:34:29.344Z,2.01
2023-01-28T14:36:59.753Z,2.11
2023-01-28T14:39:28.273Z,2.02
2023-01-28T14:41:56.817Z,2.05
2023-01-28T14:44:32.820Z,1.96
2023-01-28T14:47:18.601Z,2.02
2023-01-28T14:49:57.906Z,2.06
2023-01-28T14:52:39.711Z,2.16
2023-01-28T14:55:18.500Z,2.21
2023-01-28T14:57:49.928Z,2.14
2023-01-28T15:00:22.171Z,2.06
2023-01-28T15:02:49.115Z,2.09
2023-01-28T15:05:20.888Z,2.00
2023-01-28T15:07:49.001Z,1.85
2023-01-28T15:10:19.105Z,1.47
2023-01-28T15:12:49.452Z,1.79
2023-01-28T15:15:19.327Z,1.74
2023-01-28T15:17:47.494Z,1.82
2023-01-28T15:20:19.692Z,1.82
2023-01-28T15:22:46.764Z,1.85
2023-01-28T15:25:18.253Z,1.78
2023-01-28T15:27:45.218Z,1.78
2023-01-28T15:30:29.900Z,1.71
2023-01-28T15:32:58.872Z,1.70
2023-01-28T15:35:26.033Z,1.73
2023-01-28T15:37:52.963Z,1.71
2023-01-28T15:40:21.420Z,1.83
2023-01-28T15:42:48.895Z,1.83
2023-01-28T15:45:20.109Z,1.82
2023-01-28T15:47:48.729Z,1.83
2023-01-28T15:50:25.315Z,1.77
2023-01-28T15:52:52.856Z,1.58
2023-01-28T15:55:29.724Z,1.49
2023-01-28T15:57:56.710Z,1.37
2023-01-28T16:00:25.076Z,1.46
2023-01-28T16:02:53.421Z,1.25
2023-01-28T16:05:35.955Z,1.27
2023-01-28T16:08:07.645Z,1.35
2023-01-28T16:10:34.684Z,1.36
2023-01-28T16:13:10.700Z,1.24
2023-01-28T16:15:39.381Z,1.22
2023-01-28T16:18:06.770Z,1.27
2023-01-28T16:20:33.846Z,1.27
2023-01-28T16:23:02.476Z,1.19
2023-01-28T16:25:32.552Z,1.18
2023-01-28T16:28:00.401Z,1.27
2023-01-28T16:30:30.619Z,1.29
2023-01-28T16:32:58.228Z,1.28
2023-01-28T16:35:42.927Z,1.44
2023-01-28T16:38:17.291Z,1.30
2023-01-28T16:40:47.629Z,1.26
2023-01-28T16:43:15.370Z,1.29
2023-01-28T16:45:42.972Z,1.29
2023-01-28T16:48:09.781Z,1.39
2023-01-28T16:50:38.939Z,1.46
2023-01-28T16:53:06.559Z,1.55
2023-01-28T16:55:33.502Z,1.50
2023-01-28T16:58:00.717Z,1.66
2023-01-28T17:00:27.724Z,1.64
2023-01-28T17:02:55.224Z,1.57
2023-01-28T17:05:23.266Z,1.57
2023-01-28T17:07:50.589Z,1.60
2023-01-28T17:10:17.757Z,1.65
2023-01-28T17:12:44.823Z,1.76
2023-01-28T17:15:11.997Z,1.71
2023-01-28T17:17:38.743Z,1.70
2023-01-28T17:20:06.371Z,1.70
2023-01-28T17:22:33.174Z,1.73
2023-01-28T17:24:59.927Z,1.67
2023-01-28T17:27:26.821Z,1.69
2023-01-28T17:29:54.122Z,1.84
2023-01-28T17:32:20.993Z,1.63
2023-01-28T17:34:48.440Z,1.69
2023-01-28T17:37:15.311Z,1.55
2023-01-28T17:39:42.459Z,1.58
2023-01-28T17:42:09.243Z,1.69
2023-01-28T17:44:36.113Z,1.58
2023-01-28T17:47:03.845Z,1.49
2023-01-28T17:49:30.822Z,1.51
2023-01-28T17:51:57.721Z,1.36
2023-01-28T17:54:25.756Z,1.48
2023-01-28T17:56:52.605Z,1.45
2023-01-28T17:59:19.677Z,1.43
2023-01-28T18:01:47.507Z,1.32
2023-01-28T18:04:14.457Z,1.47
2023-01-28T18:06:41.349Z,1.38
2023-01-28T18:09:09.195Z,1.29
2023-01-28T18:11:36.069Z,1.26
2023-01-28T18:14:03.331Z,1.45
2023-01-28T18:16:30.276Z,1.46
2023-01-28T18:18:57.129Z,1.54
2023-01-28T18:21:27.311Z,1.57
2023-01-28T18:23:54.473Z,1.60
2023-01-28T18:26:22.288Z,1.66
2023-01-28T18:28:49.411Z,1.71
2023-01-28T18:31:16.355Z,1.70
2023-01-28T18:33:43.368Z,1.72
2023-01-28T18:36:10.580Z,1.68
2023-01-28T18:38:37.393Z,1.80
2023-01-28T18:41:04.360Z,1.76
2023-01-28T18:43:32.879Z,1.77
2023-01-28T18:46:00.431Z,1.80
2023-01-28T18:48:27.467Z,1.81
2023-01-28T18:50:55.124Z,1.71
2023-01-28T18:53:22.573Z,1.82
2023-01-28T18:55:49.455Z,1.76
2023-01-28T18:58:16.835Z,1.59
2023-01-28T19:00:43.677Z,1.68
2023-01-28T19:03:10.404Z,1.62
2023-01-28T19:05:38.695Z,1.60
2023-01-28T19:08:06.420Z,1.48
2023-01-28T19:10:33.408Z,1.41
2023-01-28T19:13:00.350Z,1.32
2023-01-28T19:15:27.332Z,1.31
2023-01-28T19:17:54.111Z,1.26
2023-01-28T19:20:21.127Z,1.19
2023-01-28T19:22:48.004Z,1.20
2023-01-28T19:25:16.440Z,1.12
2023-01-28T19:27:43.383Z,1.05
2023-01-28T19:30:11.038Z,1.11
2023-01-28T19:32:37.800Z,1.10
2023-01-28T19:35:04.724Z,1.03
2023-01-28T19:37:33.556Z,1.13
2023-01-28T19:40:00.348Z,1.17
2023-01-28T19:42:29.148Z,1.11
2023-01-28T19:44:55.973Z,1.15
2023-01-28T19:47:22.880Z,1.16
2023-01-28T19:49:49.725Z,1.10
2023-01-28T19:52:16.637Z,1.00
2023-01-28T19:54:43.480Z,1.02
2023-01-28T19:57:10.549Z,0.94
2023-01-28T19:59:37.705Z,0.93
2023-01-28T20:02:04.682Z,1.01
2023-01-28T20:04:31.488Z,1.05
2023-01-28T20:06:59.048Z,1.08
2023-01-28T20:09:25.916Z,1.06
2023-01-28T20:11:53.060Z,1.10
2023-01-28T20:14:21.418Z,1.13
2023-01-28T20:16:49.116Z,1.03
2023-01-28T20:19:19.681Z,0.90
2023-01-28T20:21:47.009Z,0.82
2023-01-28T20:24:15.283Z,0.88
2023-01-28T20:26:43.710Z,0.97
2023-01-28T20:29:12.354Z,1.05
2023-01-28T20:31:40.185Z,1.01
2023-01-28T20:34:07.592Z,1.05
2023-01-28T20:36:34.546Z,0.99
2023-01-28T20:39:01.729Z,1.03
2023-01-28T20:41:29.048Z,0.96
2023-01-28T20:43:56.423Z,1.12
2023-01-28T20:46:30.631Z,1.14
2023-01-28T20:48:59.037Z,1.19
2023-01-28T20:51:27.363Z,1.23
2023-01-28T20:53:55.051Z,1.29
2023-01-28T20:56:23.242Z,1.31
2023-01-28T20:58:54.466Z,1.18
2023-01-28T21:01:22.904Z,1.32
2023-01-28T21:03:49.981Z,1.28
2023-01-28T21:06:17.160Z,1.34
2023-01-28T21:08:44.389Z,1.38
2023-01-28T21:11:12.559Z,1.24
2023-01-28T21:13:39.443Z,1.15
2023-01-28T21:16:07.341Z,1.13
2023-01-28T21:18:34.978Z,1.00
2023-01-28T21:21:10.071Z,1.17
2023-01-28T21:24:01.485Z,1.14
2023-01-28T21:26:31.076Z,1.14
2023-01-28T21:28:58.431Z,1.21
2023-01-28T21:31:28.215Z,0.97
2023-01-28T21:33:56.352Z,1.05
2023-01-28T21:36:24.207Z,1.16
2023-01-28T21:38:58.376Z,1.19
2023-01-28T21:41:25.305Z,1.08
2023-01-28T21:43:53.956Z,1.11
2023-01-28T21:46:21.441Z,1.21
2023-01-28T21:48:48.457Z,1.16
2023-01-28T21:51:34.272Z,1.17
2023-01-28T21:54:01.917Z,1.22
2023-01-28T21:56:28.636Z,1.29
2023-01-28T21:59:14.160Z,1.29
2023-01-28T22:01:43.677Z,1.21
2023-01-28T22:04:11.578Z,1.24
2023-01-28T22:06:39.100Z,1.17
2023-01-28T22:09:06.994Z,1.24
2023-01-28T22:11:36.366Z,1.16
2023-01-28T22:14:03.268Z,1.17
2023-01-28T22:16:30.558Z,1.09
2023-01-28T22:18:57.314Z,0.85
2023-01-28T22:21:24.345Z,0.77
2023-01-28T22:23:51.719Z,0.73
2023-01-28T22:26:19.140Z,0.74
2023-01-28T22:28:46.491Z,0.82
2023-01-28T22:31:15.168Z,0.89
2023-01-28T22:33:42.662Z,0.93
2023-01-28T22:36:11.737Z,1.13
2023-01-28T22:38:39.323Z,0.92
2023-01-28T22:41:07.173Z,0.93
2023-01-28T22:43:34.335Z,1.04
2023-01-28T22:46:01.923Z,1.13
2023-01-28T22:48:29.136Z,1.12
2023-01-28T22:51:00.877Z,1.21
2023-01-28T22:53:27.718Z,1.19
2023-01-28T22:55:55.589Z,1.02
2023-01-28T22:58:22.761Z,1.14
2023-01-28T23:00:49.941Z,1.05
2023-01-28T23:03:16.742Z,1.15
2023-01-28T23:05:44.029Z,0.91
2023-01-28T23:08:10.843Z,0.85
2023-01-28T23:10:47.233Z,0.96
2023-01-28T23:13:18.028Z,0.95
2023-01-28T23:16:04.108Z,1.16
2023-01-28T23:18:49.623Z,0.99
2023-01-28T23:21:36.764Z,1.18
2023-01-28T23:24:19.112Z,1.12
2023-01-28T23:26:50.361Z,1.00
2023-01-28T23:29:17.512Z,1.13
2023-01-28T23:31:48.785Z,1.14
2023-01-28T23:34:16.798Z,1.16
2023-01-28T23:36:43.624Z,1.14
2023-01-28T23:39:11.010Z,0.95
2023-01-28T23:41:37.849Z,0.97
2023-01-28T23:44:05.220Z,0.90
2023-01-28T23:46:39.386Z,1.12
2023-01-28T23:49:08.790Z,1.15
2023-01-28T23:51:35.851Z,1.14
2023-01-28T23:54:02.941Z,1.10
2023-01-28T23:56:29.687Z,1.13
2023-01-28T23:58:56.915Z,1.21
